Time;durP1;ratioP1;P1;durP2;ratioP2;P2;SDS_P1;SDS_P2;PMS_P1;PMS_P2;Temp;Humidity;BMP_temperature;BMP_pressure;BME280_temperature;BME280_humidity;BME280_pressure;Samples;Min_cycle;Max_cycle;Signal;HPM_P1;HPM_P2
2021/06/02 00:02:14;;;;;;;6.00;5.50;;;16.30;99.90;;;;;;5031740;28;20089;-75
2021/06/02 00:04:46;;;;;;;6.80;6.10;;;16.30;99.90;;;;;;5030893;28;20653;-75
2021/06/02 00:07:24;;;;;;;8.05;6.10;;;16.30;99.90;;;;;;5031850;28;20079;-74
2021/06/02 00:09:52;;;;;;;7.20;6.35;;;16.40;99.90;;;;;;5034422;28;20044;-75
2021/06/02 00:12:18;;;;;;;6.18;5.57;;;16.40;99.90;;;;;;5038380;28;20026;-75
2021/06/02 00:14:45;;;;;;;8.70;5.93;;;16.40;99.90;;;;;;5038581;28;20132;-75
2021/06/02 00:17:11;;;;;;;10.23;5.90;;;16.50;99.90;;;;;;5038161;28;20480;-75
2021/06/02 00:19:37;;;;;;;6.53;5.53;;;16.50;99.90;;;;;;5037256;28;20395;-74
2021/06/02 00:22:05;;;;;;;9.25;5.80;;;16.50;99.90;;;;;;5037738;28;20028;-75
2021/06/02 00:24:32;;;;;;;6.88;6.15;;;16.40;99.90;;;;;;5037788;28;20079;-74
2021/06/02 00:27:02;;;;;;;6.63;5.80;;;16.20;99.90;;;;;;5037754;28;20258;-75
2021/06/02 00:29:31;;;;;;;11.43;5.57;;;16.20;99.90;;;;;;5037767;28;20021;-75
2021/06/02 00:31:58;;;;;;;6.05;5.55;;;16.10;99.90;;;;;;5038533;28;20060;-75
2021/06/02 00:34:24;;;;;;;10.93;5.93;;;16.10;99.90;;;;;;5036654;28;20398;-75
2021/06/02 00:36:52;;;;;;;6.53;5.20;;;16.10;99.90;;;;;;5032225;28;20044;-74
2021/06/02 00:39:19;;;;;;;6.90;4.80;;;16.10;99.90;;;;;;5035494;28;20108;-75
2021/06/02 00:41:46;;;;;;;10.30;5.97;;;16.10;99.90;;;;;;5031594;28;20080;-75
2021/06/02 00:44:14;;;;;;;5.95;5.45;;;16.00;99.90;;;;;;5014464;28;20048;-75
2021/06/02 00:46:42;;;;;;;6.47;5.18;;;16.00;99.90;;;;;;5020502;28;20018;-75
2021/06/02 00:49:13;;;;;;;5.57;5.07;;;16.10;99.90;;;;;;5038219;28;20109;-75
2021/06/02 00:51:39;;;;;;;5.78;4.85;;;16.10;99.90;;;;;;5037997;28;20036;-75
2021/06/02 00:54:06;;;;;;;5.90;5.40;;;15.90;99.90;;;;;;5036374;28;20044;-75
2021/06/02 00:56:41;;;;;;;7.63;5.30;;;15.90;99.90;;;;;;5038047;28;20030;-74
2021/06/02 00:59:09;;;;;;;6.20;5.65;;;15.80;99.90;;;;;;5037380;28;20021;-75
2021/06/02 01:01:35;;;;;;;7.57;5.63;;;15.70;99.90;;;;;;5036535;28;20476;-75
2021/06/02 01:04:05;;;;;;;13.05;5.68;;;15.70;99.90;;;;;;5037324;28;20029;-75
2021/06/02 01:06:35;;;;;;;6.63;5.97;;;15.70;99.90;;;;;;5037374;28;20018;-75
2021/06/02 01:09:04;;;;;;;5.88;5.35;;;15.60;99.90;;;;;;5036358;28;20056;-75
2021/06/02 01:11:31;;;;;;;6.20;5.70;;;15.70;99.90;;;;;;5013978;28;20078;-75
2021/06/02 01:13:58;;;;;;;6.32;5.75;;;15.60;99.90;;;;;;5031591;28;20040;-75
2021/06/02 01:16:29;;;;;;;6.38;5.88;;;15.60;99.90;;;;;;5031929;28;20083;-75
2021/06/02 01:18:55;;;;;;;5.65;5.18;;;15.60;99.90;;;;;;5032111;28;20089;-75
2021/06/02 01:21:23;;;;;;;6.28;5.68;;;15.50;99.90;;;;;;5031336;28;20101;-75
2021/06/02 01:23:51;;;;;;;6.00;5.47;;;15.50;99.90;;;;;;5031415;28;20440;-74
2021/06/02 01:26:18;;;;;;;9.32;5.18;;;15.50;99.90;;;;;;5030824;28;20017;-75
2021/06/02 01:28:45;;;;;;;5.57;5.03;;;15.60;99.90;;;;;;5030724;28;20052;-75
2021/06/02 01:31:21;;;;;;;5.65;5.03;;;15.70;99.90;;;;;;5030755;28;20419;-74
2021/06/02 01:34:11;;;;;;;5.53;5.13;;;15.70;99.90;;;;;;5030490;28;20439;-75
2021/06/02 01:37:10;;;;;;;7.40;4.78;;;15.70;99.90;;;;;;5030604;28;20021;-74
2021/06/02 01:39:48;;;;;;;6.18;5.68;;;15.70;99.90;;;;;;5030390;28;20138;-75
2021/06/02 01:42:32;;;;;;;5.32;4.82;;;15.80;99.90;;;;;;5030383;28;20025;-75
2021/06/02 01:45:43;;;;;;;5.70;5.25;;;15.90;99.90;;;;;;5012480;28;20112;-74
2021/06/02 01:48:28;;;;;;;8.65;4.78;;;15.90;99.90;;;;;;4982046;28;20132;-75
2021/06/02 01:51:12;;;;;;;5.53;5.03;;;15.90;99.90;;;;;;5014278;28;20032;-75
2021/06/02 01:54:03;;;;;;;8.35;5.80;;;16.00;99.90;;;;;;5016346;28;20029;-74
2021/06/02 01:57:08;;;;;;;5.95;5.40;;;15.90;99.90;;;;;;5034154;28;20075;-74
2021/06/02 01:59:52;;;;;;;6.60;5.13;;;15.90;99.90;;;;;;5033726;28;20025;-74
2021/06/02 02:02:37;;;;;;;7.40;5.18;;;15.90;99.90;;;;;;5016267;28;20479;-74
2021/06/02 02:05:25;;;;;;;6.13;5.05;;;15.90;99.90;;;;;;5034283;28;20234;-75
2021/06/02 02:08:15;;;;;;;4.85;4.45;;;15.90;99.90;;;;;;5034471;28;20028;-75
2021/06/02 02:10:49;;;;;;;6.85;5.05;;;15.90;99.90;;;;;;5034089;28;20057;-75
2021/06/02 02:13:24;;;;;;;8.30;5.25;;;15.90;99.90;;;;;;5017581;28;20029;-75
2021/06/02 02:16:11;;;;;;;6.50;5.78;;;15.90;99.90;;;;;;5035961;28;20556;-75
2021/06/02 02:19:03;;;;;;;5.03;4.55;;;15.90;99.90;;;;;;5034219;28;20029;-75
2021/06/02 02:21:31;;;;;;;6.40;4.70;;;15.90;99.90;;;;;;5033873;28;20057;-76
2021/06/02 02:24:12;;;;;;;6.95;5.53;;;15.90;99.90;;;;;;5033790;28;20017;-76
2021/06/02 02:26:47;;;;;;;8.38;5.63;;;15.90;99.90;;;;;;5034034;28;20456;-75
2021/06/02 02:29:18;;;;;;;6.40;4.85;;;15.90;99.90;;;;;;5017793;28;20438;-76
2021/06/02 02:31:50;;;;;;;7.07;5.47;;;15.90;99.90;;;;;;5036130;28;20025;-74
2021/06/02 02:34:43;;;;;;;6.20;5.38;;;15.80;99.90;;;;;;5033957;28;20056;-75
2021/06/02 02:37:22;;;;;;;7.22;5.85;;;15.80;99.90;;;;;;5033149;28;20495;-74
2021/06/02 02:40:00;;;;;;;6.10;5.60;;;15.70;99.90;;;;;;5032567;28;20030;-75
2021/06/02 02:42:35;;;;;;;5.63;5.18;;;15.80;99.90;;;;;;5032638;28;20447;-76
2021/06/02 02:45:25;;;;;;;7.28;5.47;;;15.80;99.90;;;;;;5032717;28;20107;-75
2021/06/02 02:48:15;;;;;;;8.27;4.95;;;15.70;99.90;;;;;;5032687;28;20029;-75
2021/06/02 02:51:12;;;;;;;6.40;5.80;;;15.70;99.90;;;;;;5032607;28;20040;-75
2021/06/02 02:53:57;;;;;;;5.95;5.38;;;15.70;99.90;;;;;;5032494;28;20208;-76
2021/06/02 02:56:29;;;;;;;7.50;6.28;;;15.60;99.90;;;;;;5032652;28;20035;-75
2021/06/02 02:59:04;;;;;;;6.85;6.07;;;15.60;99.90;;;;;;5019959;28;20103;-75
2021/06/02 03:01:47;;;;;;;6.28;5.68;;;15.60;99.90;;;;;;5014629;28;20476;-75
2021/06/02 03:04:23;;;;;;;6.88;5.68;;;15.60;99.90;;;;;;5032972;28;20049;-74
2021/06/02 03:06:58;;;;;;;8.68;5.68;;;15.60;99.90;;;;;;5032388;28;20036;-75
2021/06/02 03:09:47;;;;;;;6.70;5.47;;;15.60;99.90;;;;;;5032316;28;20056;-75
2021/06/02 03:12:13;;;;;;;6.35;5.85;;;15.60;99.90;;;;;;5032537;28;20028;-75
2021/06/02 03:15:03;;;;;;;6.75;6.00;;;15.60;99.90;;;;;;5032237;28;20034;-75
2021/06/02 03:17:47;;;;;;;6.25;5.65;;;15.60;99.90;;;;;;5014358;28;20052;-75
2021/06/02 03:20:35;;;;;;;6.68;6.05;;;15.50;99.90;;;;;;5032557;28;20152;-75
2021/06/02 03:23:17;;;;;;;6.57;5.85;;;15.50;99.90;;;;;;5032776;28;20479;-75
2021/06/02 03:25:51;;;;;;;8.47;6.03;;;15.40;99.90;;;;;;5032688;28;20028;-77
2021/06/02 03:28:28;;;;;;;6.43;5.82;;;15.50;99.90;;;;;;5032800;28;20030;-75
2021/06/02 03:31:06;;;;;;;8.80;6.57;;;15.50;99.90;;;;;;5033537;28;20022;-75
2021/06/02 03:34:03;;;;;;;6.07;5.63;;;15.60;99.90;;;;;;5015804;28;20026;-75
2021/06/02 03:36:53;;;;;;;6.10;5.60;;;15.70;99.90;;;;;;5035076;28;20029;-75
2021/06/02 03:39:28;;;;;;;5.45;5.05;;;15.70;99.90;;;;;;5017648;28;20029;-75
2021/06/02 03:42:15;;;;;;;5.15;4.75;;;15.70;99.90;;;;;;5017015;28;20021;-75
2021/06/02 03:44:59;;;;;;;6.63;5.72;;;15.80;99.90;;;;;;5033125;28;20066;-74
2021/06/02 03:48:04;;;;;;;5.57;5.13;;;15.80;99.90;;;;;;5031474;28;20121;-76
2021/06/02 03:50:59;;;;;;;6.63;5.25;;;15.80;99.90;;;;;;5032031;28;20033;-76
2021/06/02 03:54:04;;;;;;;6.47;5.32;;;15.80;99.90;;;;;;5032313;28;20021;-75
2021/06/02 03:57:13;;;;;;;8.60;6.28;;;15.80;99.90;;;;;;5032617;28;20029;-76
2021/06/02 03:59:56;;;;;;;7.80;7.13;;;15.80;99.90;;;;;;4952134;28;20031;-76
2021/06/02 04:02:34;;;;;;;6.63;6.13;;;15.80;99.90;;;;;;4988909;28;20042;-76
2021/06/02 04:05:11;;;;;;;5.57;5.07;;;15.70;99.90;;;;;;4995821;28;20056;-76
2021/06/02 04:08:23;;;;;;;6.60;5.82;;;15.60;99.90;;;;;;5013669;28;20032;-75
2021/06/02 04:11:42;;;;;;;12.55;5.57;;;15.70;99.90;;;;;;4998988;28;20503;-75
2021/06/02 04:14:08;;;;;;;6.75;6.03;;;15.70;99.90;;;;;;4951839;28;20083;-75
2021/06/02 04:16:39;;;;;;;6.53;6.00;;;15.70;99.90;;;;;;4957188;28;20162;-76
2021/06/02 04:19:14;;;;;;;9.48;6.13;;;15.70;99.90;;;;;;4991573;28;20038;-75
2021/06/02 04:21:43;;;;;;;8.18;5.60;;;15.70;99.90;;;;;;5013686;28;20384;-75
2021/06/02 04:24:12;;;;;;;7.43;6.40;;;15.80;99.90;;;;;;5012023;28;20026;-76
2021/06/02 04:26:39;;;;;;;8.90;6.65;;;15.80;99.90;;;;;;5011221;28;20145;-76
2021/06/02 04:29:09;;;;;;;18.08;6.53;;;15.90;99.90;;;;;;5011796;28;20022;-76
2021/06/02 04:31:37;;;;;;;7.78;6.22;;;16.00;99.90;;;;;;5012079;28;20072;-76
2021/06/02 04:34:03;;;;;;;27.02;7.40;;;16.10;99.90;;;;;;5010483;28;20028;-76
2021/06/02 04:36:33;;;;;;;7.72;5.55;;;16.20;99.90;;;;;;5035652;28;20463;-76
2021/06/02 04:39:00;;;;;;;8.98;5.82;;;16.20;99.90;;;;;;5037590;28;20089;-75
2021/06/02 04:41:27;;;;;;;8.45;6.10;;;16.20;99.90;;;;;;5019774;28;20349;-75
2021/06/02 04:43:57;;;;;;;8.35;5.78;;;16.30;99.90;;;;;;5034007;28;20017;-76
2021/06/02 04:46:23;;;;;;;7.32;5.72;;;16.40;99.90;;;;;;5032538;28;20028;-76
2021/06/02 04:48:52;;;;;;;6.63;6.00;;;16.40;99.90;;;;;;5032807;28;20085;-76
2021/06/02 04:51:21;;;;;;;9.13;5.97;;;16.50;99.90;;;;;;5032579;28;20436;-76
2021/06/02 04:53:55;;;;;;;5.85;5.32;;;16.60;99.90;;;;;;5031982;28;20025;-75
2021/06/02 04:56:27;;;;;;;7.30;5.32;;;16.60;99.90;;;;;;5032512;28;20045;-75
2021/06/02 04:59:04;;;;;;;6.15;5.65;;;16.70;99.90;;;;;;5032104;28;20111;-78
2021/06/02 05:01:52;;;;;;;6.38;5.22;;;16.90;99.90;;;;;;5032387;28;20040;-75
2021/06/02 05:04:21;;;;;;;6.97;5.25;;;17.00;99.90;;;;;;5034735;28;20565;-75
2021/06/02 05:07:05;;;;;;;5.88;5.28;;;17.20;99.90;;;;;;5034700;28;20025;-75
2021/06/02 05:09:58;;;;;;;6.57;5.80;;;17.30;99.90;;;;;;5035444;28;20030;-76
2021/06/02 05:12:51;;;;;;;5.65;4.78;;;17.40;99.90;;;;;;5035818;28;20029;-75
2021/06/02 05:15:41;;;;;;;6.30;5.38;;;17.40;99.90;;;;;;5032637;28;20033;-76
2021/06/02 05:18:29;;;;;;;12.57;5.20;;;17.50;99.90;;;;;;5030661;28;20497;-76
2021/06/02 05:24:22;;;;;;;5.90;5.30;;;17.60;99.90;;;;;;5031354;28;20480;-76
2021/06/02 05:26:59;;;;;;;5.97;5.38;;;17.70;99.90;;;;;;5034846;28;20083;-76
2021/06/02 05:29:50;;;;;;;6.55;5.95;;;17.80;99.90;;;;;;5034281;28;20083;-76
2021/06/02 05:32:49;;;;;;;7.53;5.97;;;18.00;99.90;;;;;;5034133;28;20022;-76
2021/06/02 05:35:45;;;;;;;7.75;5.20;;;18.10;99.90;;;;;;5034084;28;20486;-75
2021/06/02 05:38:33;;;;;;;5.93;5.40;;;18.30;99.90;;;;;;5034065;28;20081;-75
2021/06/02 05:41:21;;;;;;;5.30;4.80;;;18.30;99.90;;;;;;5034566;28;20084;-75
2021/06/02 05:44:15;;;;;;;8.48;5.70;;;18.50;99.90;;;;;;5016785;28;20492;-75
2021/06/02 05:47:02;;;;;;;13.95;6.03;;;18.60;99.90;;;;;;5034834;28;20364;-76
2021/06/02 05:49:55;;;;;;;7.10;4.95;;;18.70;99.90;;;;;;5034613;28;20052;-75
2021/06/02 05:52:30;;;;;;;5.70;5.20;;;18.80;99.90;;;;;;5015991;28;20025;-75
2021/06/02 05:55:04;;;;;;;5.55;4.63;;;18.80;99.90;;;;;;5034057;28;20017;-75
2021/06/02 05:57:49;;;;;;;10.43;5.95;;;18.80;99.90;;;;;;5033729;28;20037;-75
2021/06/02 06:00:45;;;;;;;5.93;5.40;;;18.90;99.90;;;;;;5033620;28;20021;-75
2021/06/02 06:03:30;;;;;;;5.40;4.90;;;19.00;99.90;;;;;;5033336;28;20029;-76
2021/06/02 06:06:26;;;;;;;8.15;5.05;;;19.00;99.90;;;;;;5033427;28;20479;-75
2021/06/02 06:09:16;;;;;;;10.23;5.45;;;19.10;99.90;;;;;;5033139;28;20542;-76
2021/06/02 06:12:19;;;;;;;5.50;4.85;;;19.20;99.90;;;;;;5044048;28;20405;-75
2021/06/02 06:14:50;;;;;;;7.22;5.10;;;19.40;99.90;;;;;;5033341;28;20487;-75
2021/06/02 06:17:25;;;;;;;8.85;5.35;;;19.50;99.90;;;;;;5033211;28;20398;-75
2021/06/02 06:20:20;;;;;;;8.57;5.40;;;19.60;99.90;;;;;;5032743;28;20570;-75
2021/06/02 06:23:04;;;;;;;5.40;4.90;;;19.70;99.90;;;;;;5033151;28;20040;-77
2021/06/02 06:25:49;;;;;;;5.38;4.53;;;19.80;99.90;;;;;;5032285;28;20076;-76
2021/06/02 06:28:38;;;;;;;5.45;4.07;;;20.00;99.90;;;;;;5014880;28;20029;-76
2021/06/02 06:31:11;;;;;;;7.82;5.45;;;20.20;99.90;;;;;;5032911;28;20500;-76
2021/06/02 06:33:39;;;;;;;6.97;5.15;;;20.20;99.90;;;;;;5033272;28;20048;-76
2021/06/02 06:36:06;;;;;;;5.45;5.05;;;20.20;99.90;;;;;;5033845;28;20025;-76
2021/06/02 06:38:47;;;;;;;6.65;4.93;;;20.30;99.90;;;;;;5037235;28;20116;-75
2021/06/02 06:41:15;;;;;;;4.78;4.47;;;20.40;99.90;;;;;;5014520;28;20033;-76
2021/06/02 06:43:44;;;;;;;6.05;5.13;;;20.50;99.90;;;;;;5032448;28;20104;-76
2021/06/02 06:46:10;;;;;;;6.82;6.05;;;20.60;99.90;;;;;;5032732;28;20502;-76
2021/06/02 06:48:37;;;;;;;5.50;4.95;;;20.80;99.90;;;;;;5032466;28;20040;-75
2021/06/02 06:51:06;;;;;;;4.80;4.40;;;20.80;99.90;;;;;;5032848;28;20029;-75
2021/06/02 06:53:33;;;;;;;5.63;3.47;;;20.90;99.90;;;;;;5032002;28;20026;-76
2021/06/02 06:56:00;;;;;;;7.03;4.82;;;20.90;99.90;;;;;;5031965;28;20128;-77
2021/06/02 06:58:26;;;;;;;6.47;4.40;;;21.00;99.90;;;;;;5032201;28;20030;-75
2021/06/02 07:00:54;;;;;;;8.98;4.25;;;21.10;99.90;;;;;;5032118;28;20036;-75
2021/06/02 07:03:20;;;;;;;6.05;4.68;;;21.00;99.90;;;;;;5033216;28;20044;-76
2021/06/02 07:05:47;;;;;;;6.97;4.30;;;21.00;99.90;;;;;;5032579;28;20049;-76
2021/06/02 07:08:13;;;;;;;8.82;7.95;;;21.00;99.90;;;;;;5031863;28;20018;-75
2021/06/02 07:10:39;;;;;;;4.78;4.30;;;21.00;99.90;;;;;;5032268;28;20104;-76
2021/06/02 07:13:10;;;;;;;6.70;5.80;;;20.90;99.90;;;;;;5033205;28;20118;-79
2021/06/02 07:15:36;;;;;;;6.80;4.85;;;21.00;99.90;;;;;;5032759;28;20021;-77
2021/06/02 07:18:03;;;;;;;9.00;6.05;;;21.10;99.90;;;;;;5034657;28;20215;-75
2021/06/02 07:20:30;;;;;;;8.82;5.95;;;21.10;99.90;;;;;;5014968;28;20037;-76
2021/06/02 07:22:57;;;;;;;6.30;5.43;;;21.10;99.90;;;;;;5031640;28;20084;-77
2021/06/02 07:25:27;;;;;;;8.77;4.88;;;21.10;99.90;;;;;;5032033;28;20025;-76
2021/06/02 07:27:56;;;;;;;7.30;6.07;;;21.10;99.90;;;;;;5031826;28;20041;-77
2021/06/02 07:30:25;;;;;;;10.07;6.60;;;21.10;99.90;;;;;;5031902;28;20025;-77
2021/06/02 07:32:51;;;;;;;6.45;5.65;;;21.10;99.90;;;;;;5031790;28;20026;-77
2021/06/02 07:35:17;;;;;;;7.82;5.40;;;21.10;99.90;;;;;;5032103;28;20390;-78
2021/06/02 07:37:42;;;;;;;11.27;5.78;;;21.10;99.90;;;;;;5031345;28;20029;-76
2021/06/02 07:40:09;;;;;;;6.47;5.80;;;21.20;99.90;;;;;;5031503;28;20069;-76
2021/06/02 07:42:35;;;;;;;7.00;5.57;;;21.30;99.90;;;;;;5031587;28;20395;-76
2021/06/02 07:45:01;;;;;;;8.05;6.95;;;21.40;99.90;;;;;;5031850;28;20021;-77
2021/06/02 07:47:27;;;;;;;10.90;5.15;;;21.50;99.90;;;;;;5031506;28;20096;-76
2021/06/02 07:49:53;;;;;;;4.88;4.45;;;21.60;99.90;;;;;;5030793;28;20523;-77
2021/06/02 07:52:18;;;;;;;8.90;5.75;;;21.50;99.90;;;;;;5031447;28;20116;-77
2021/06/02 07:54:44;;;;;;;9.13;8.25;;;21.50;99.90;;;;;;5032083;28;20041;-77
2021/06/02 07:57:10;;;;;;;9.52;5.88;;;21.50;99.90;;;;;;5029311;28;20041;-77
2021/06/02 07:59:36;;;;;;;6.15;5.35;;;21.40;99.90;;;;;;5032303;28;20033;-77
2021/06/02 08:02:13;;;;;;;8.93;6.32;;;21.40;99.90;;;;;;5010414;28;20089;-76
2021/06/02 08:04:39;;;;;;;7.63;6.82;;;21.30;99.90;;;;;;5028459;28;20037;-77
2021/06/02 08:07:07;;;;;;;10.95;5.53;;;21.30;99.90;;;;;;5032327;28;20162;-77
2021/06/02 08:09:34;;;;;;;6.90;5.82;;;21.30;99.90;;;;;;5031719;28;20499;-76
2021/06/02 08:12:00;;;;;;;8.35;6.03;;;21.20;99.90;;;;;;5032643;28;20046;-77
2021/06/02 08:14:27;;;;;;;5.47;4.80;;;21.30;99.90;;;;;;5032032;28;20109;-77
2021/06/02 08:16:52;;;;;;;5.65;5.05;;;21.20;99.90;;;;;;5031991;28;20029;-74
2021/06/02 08:19:21;;;;;;;6.00;5.45;;;21.10;99.90;;;;;;5012858;28;20522;-73
2021/06/02 08:21:47;;;;;;;8.20;4.93;;;21.10;99.90;;;;;;5038598;28;20484;-74
2021/06/02 08:24:13;;;;;;;6.25;5.65;;;21.20;99.90;;;;;;5013742;28;20028;-74
2021/06/02 08:26:39;;;;;;;8.73;5.88;;;21.10;99.90;;;;;;5030600;28;20101;-73
2021/06/02 08:29:05;;;;;;;8.25;5.82;;;21.10;99.90;;;;;;5031167;28;20018;-73
2021/06/02 08:31:31;;;;;;;15.23;5.82;;;21.20;99.90;;;;;;5030915;28;20523;-75
2021/06/02 08:34:01;;;;;;;11.48;6.10;;;21.20;99.90;;;;;;5031077;28;20037;-75
2021/06/02 08:36:27;;;;;;;6.05;4.78;;;21.20;99.90;;;;;;5013180;28;20032;-72
2021/06/02 08:38:54;;;;;;;8.63;4.80;;;21.20;99.90;;;;;;5039362;28;20029;-72
2021/06/02 08:41:20;;;;;;;6.90;6.07;;;21.20;99.90;;;;;;5033573;28;20484;-74
2021/06/02 08:43:47;;;;;;;11.82;5.85;;;21.20;99.90;;;;;;5030207;28;20022;-74
2021/06/02 08:46:15;;;;;;;5.72;4.90;;;21.20;99.90;;;;;;5029898;28;20555;-77
2021/06/02 08:48:44;;;;;;;8.52;4.78;;;21.10;99.90;;;;;;5032059;28;20454;-72
2021/06/02 08:51:10;;;;;;;5.45;5.05;;;21.10;99.90;;;;;;5033324;28;20538;-75
2021/06/02 08:53:37;;;;;;;10.77;4.65;;;21.30;99.90;;;;;;5029569;28;20105;-75
2021/06/02 08:56:04;;;;;;;5.30;4.78;;;21.40;99.90;;;;;;5028874;28;20383;-76
2021/06/02 08:58:30;;;;;;;4.65;4.25;;;21.50;99.90;;;;;;5029672;28;20400;-74
2021/06/02 09:00:56;;;;;;;5.60;5.10;;;21.60;99.90;;;;;;5033498;28;20080;-74
2021/06/02 09:03:22;;;;;;;4.07;3.78;;;21.70;99.90;;;;;;5035372;28;20033;-75
2021/06/02 09:05:48;;;;;;;4.57;4.18;;;21.60;99.90;;;;;;5035303;28;20087;-74
2021/06/02 09:08:15;;;;;;;6.15;3.58;;;21.60;99.90;;;;;;5034449;28;20061;-73
2021/06/02 09:10:43;;;;;;;3.80;3.50;;;21.70;99.90;;;;;;5035163;28;20017;-73
2021/06/02 09:13:23;;;;;;;3.80;3.47;;;21.80;99.90;;;;;;5034068;28;20557;-73
2021/06/02 09:15:52;;;;;;;4.07;3.55;;;22.00;99.90;;;;;;5033609;28;20033;-72
2021/06/02 09:18:23;;;;;;;7.18;3.53;;;22.00;99.90;;;;;;5033202;28;20596;-74
2021/06/02 09:20:57;;;;;;;5.47;3.15;;;22.10;99.90;;;;;;5035632;28;20112;-73
2021/06/02 09:23:35;;;;;;;7.05;3.05;;;22.10;99.90;;;;;;5022108;28;20443;-73
2021/06/02 09:26:13;;;;;;;3.78;3.53;;;22.10;99.90;;;;;;5032674;28;20021;-73
2021/06/02 09:28:48;;;;;;;3.00;2.80;;;22.00;99.90;;;;;;5031122;28;20108;-75
2021/06/02 09:31:21;;;;;;;3.47;2.95;;;22.10;99.90;;;;;;5015930;28;20029;-73
2021/06/02 09:33:47;;;;;;;3.00;2.80;;;22.20;99.90;;;;;;5036991;28;20036;-73
2021/06/02 09:36:14;;;;;;;3.85;2.83;;;22.20;99.90;;;;;;5037096;28;20216;-72
2021/06/02 09:38:42;;;;;;;3.88;3.58;;;22.40;99.90;;;;;;5032569;28;20544;-73
2021/06/02 09:41:13;;;;;;;5.93;3.88;;;22.40;99.90;;;;;;5016463;28;20034;-75
2021/06/02 09:43:39;;;;;;;3.65;3.35;;;22.30;99.90;;;;;;5034559;28;20104;-72
2021/06/02 09:46:06;;;;;;;4.80;3.95;;;22.30;99.90;;;;;;5033882;28;20113;-73
2021/06/02 09:48:47;;;;;;;7.55;3.55;;;22.30;99.90;;;;;;5032940;28;20020;-72
2021/06/02 09:51:39;;;;;;;4.68;4.25;;;22.30;99.90;;;;;;5021182;28;20036;-72
2021/06/02 09:54:07;;;;;;;6.78;4.13;;;22.20;99.90;;;;;;5030890;28;20511;-72
2021/06/02 09:56:41;;;;;;;5.38;4.22;;;22.00;99.90;;;;;;5033865;28;20033;-73
2021/06/02 09:59:09;;;;;;;4.55;4.22;;;22.00;99.90;;;;;;5035856;28;20029;-72
2021/06/02 10:02:14;;;;;;;4.05;3.65;;;21.80;99.90;;;;;;5037750;28;20115;-73
2021/06/02 10:04:40;;;;;;;5.32;4.75;;;21.90;99.90;;;;;;4997320;28;20034;-72
2021/06/02 10:07:18;;;;;;;6.63;5.43;;;21.90;99.90;;;;;;5033540;28;20030;-65
2021/06/02 10:09:44;;;;;;;6.28;5.15;;;21.90;99.90;;;;;;5032909;28;20029;-65
2021/06/02 10:12:11;;;;;;;6.38;5.75;;;22.00;99.90;;;;;;5031614;28;20032;-65
2021/06/02 10:14:52;;;;;;;9.10;5.40;;;22.00;99.90;;;;;;5033148;28;20029;-73
2021/06/02 10:17:38;;;;;;;5.72;4.20;;;21.90;99.90;;;;;;5033519;28;20026;-75
2021/06/02 10:20:12;;;;;;;3.92;3.63;;;22.00;99.90;;;;;;5033367;28;20032;-73
2021/06/02 10:22:39;;;;;;;6.57;5.18;;;22.00;99.90;;;;;;5033221;28;20104;-73
2021/06/02 10:25:08;;;;;;;6.53;4.97;;;22.00;99.90;;;;;;5032748;28;20105;-74
2021/06/02 10:27:35;;;;;;;8.60;3.78;;;22.10;99.90;;;;;;5039093;28;20037;-71
2021/06/02 10:30:01;;;;;;;6.18;4.13;;;22.10;99.90;;;;;;5036706;28;20074;-71
2021/06/02 10:32:27;;;;;;;9.82;5.03;;;22.10;99.90;;;;;;5031641;28;20107;-72
2021/06/02 10:34:54;;;;;;;6.93;4.28;;;22.10;99.90;;;;;;5032651;28;20091;-71
2021/06/02 10:37:23;;;;;;;5.85;4.90;;;22.20;99.90;;;;;;5032261;28;20029;-72
2021/06/02 10:40:00;;;;;;;12.40;5.97;;;22.20;99.90;;;;;;5032428;28;20033;-72
2021/06/02 10:42:32;;;;;;;12.18;5.22;;;22.20;99.90;;;;;;5015173;28;20427;-72
2021/06/02 10:45:18;;;;;;;;;;;22.20;99.90;;;;;;5033384;28;20025;-72
2021/06/02 10:47:51;;;;;;;4.93;4.55;;;22.10;99.90;;;;;;5032867;28;19995;-72
2021/06/02 10:50:41;;;;;;;9.23;6.28;;;22.10;99.90;;;;;;5032446;28;20514;-72
2021/06/02 10:53:36;;;;;;;6.95;5.90;;;21.90;99.90;;;;;;5031940;28;20112;-71
2021/06/02 10:56:02;;;;;;;8.07;7.38;;;21.70;99.90;;;;;;5023948;28;20538;-71
2021/06/02 10:58:32;;;;;;;8.57;6.65;;;21.70;99.90;;;;;;5032473;28;20168;-72
2021/06/02 11:01:06;;;;;;;6.97;6.38;;;21.60;99.90;;;;;;5033388;28;20022;-74
2021/06/02 11:03:33;;;;;;;6.32;5.82;;;21.40;99.90;;;;;;5014449;28;20094;-74
2021/06/02 11:06:14;;;;;;;5.85;5.22;;;21.30;99.90;;;;;;5013817;28;20052;-73
2021/06/02 11:09:06;;;;;;;5.68;5.18;;;21.50;99.90;;;;;;5026050;28;20399;-74
2021/06/02 11:11:43;;;;;;;7.30;5.90;;;21.60;99.90;;;;;;5025837;28;20534;-72
2021/06/02 11:16:53;;;;;;;5.93;5.53;;;21.50;99.90;;;;;;5032961;28;20434;-73
2021/06/02 11:19:23;;;;;;;5.50;5.10;;;21.40;99.90;;;;;;5032376;28;20030;-73
2021/06/02 11:21:55;;;;;;;7.78;5.10;;;21.50;99.90;;;;;;5032955;28;20021;-74
2021/06/02 11:24:35;;;;;;;6.13;5.43;;;21.50;99.90;;;;;;5034430;28;20478;-74
2021/06/02 11:27:17;;;;;;;16.30;5.50;;;21.60;99.90;;;;;;5016198;28;20026;-73
2021/06/02 11:29:51;;;;;;;;;;;21.60;99.90;;;;;;5033469;28;20063;-73
2021/06/02 11:32:45;;;;;;;7.05;4.53;;;21.60;99.90;;;;;;5034183;28;19940;-74
2021/06/02 11:35:11;;;;;;;7.90;4.93;;;21.60;99.90;;;;;;5034396;28;20420;-73
2021/06/02 11:37:37;;;;;;;7.10;5.05;;;21.70;99.90;;;;;;5050789;28;20025;-74
2021/06/02 11:40:09;;;;;;;6.90;5.45;;;21.90;99.90;;;;;;5040082;28;20514;-73
2021/06/02 11:42:42;;;;;;;5.28;4.88;;;22.10;99.90;;;;;;5034446;28;20108;-73
2021/06/02 11:45:08;;;;;;;5.28;4.78;;;22.10;99.90;;;;;;5016810;28;20030;-74
2021/06/02 11:47:35;;;;;;;6.80;5.93;;;22.00;99.90;;;;;;5033924;28;20639;-73
2021/06/02 11:50:08;;;;;;;8.98;6.15;;;21.90;99.90;;;;;;5034077;28;20434;-73
2021/06/02 11:52:35;;;;;;;4.95;4.50;;;21.80;99.90;;;;;;5034857;28;20024;-74
2021/06/02 11:55:09;;;;;;;8.40;6.32;;;21.80;99.90;;;;;;5035164;28;20031;-73
2021/06/02 11:57:39;;;;;;;5.95;5.35;;;21.80;99.90;;;;;;5034397;28;20476;-73
2021/06/02 12:00:10;;;;;;;5.40;4.90;;;21.80;99.90;;;;;;5015803;28;20546;-74
2021/06/02 12:02:37;;;;;;;7.73;4.60;;;21.80;99.90;;;;;;5032415;28;20105;-73
2021/06/02 12:05:20;;;;;;;5.63;5.07;;;21.80;99.90;;;;;;5034026;28;20023;-73
2021/06/02 12:07:47;;;;;;;7.90;5.65;;;22.10;99.90;;;;;;5013081;28;20401;-75
2021/06/02 12:10:14;;;;;;;6.47;5.80;;;21.90;99.90;;;;;;5031690;28;20087;-73
2021/06/02 12:12:42;;;;;;;8.52;7.80;;;21.90;99.90;;;;;;5028836;28;20021;-74
2021/06/02 12:15:09;;;;;;;10.02;6.80;;;21.90;99.90;;;;;;5034014;28;20040;-74
2021/06/02 12:17:36;;;;;;;6.28;5.75;;;22.00;99.90;;;;;;5033640;28;20087;-75
2021/06/02 12:20:11;;;;;;;6.18;5.40;;;22.10;99.90;;;;;;5032097;28;20025;-75
2021/06/02 12:22:37;;;;;;;5.25;4.85;;;21.90;99.90;;;;;;5032344;28;20100;-73
2021/06/02 12:25:15;;;;;;;6.85;4.53;;;21.90;99.90;;;;;;5034419;28;20022;-74
2021/06/02 12:27:42;;;;;;;7.57;4.45;;;21.90;99.90;;;;;;5030930;28;20080;-72
2021/06/02 12:30:18;;;;;;;5.25;4.72;;;21.90;99.90;;;;;;5031491;28;20083;-74
2021/06/02 12:32:58;;;;;;;5.72;4.88;;;22.00;99.90;;;;;;5029892;28;20026;-73
2021/06/02 12:35:41;;;;;;;10.90;4.88;;;21.90;99.90;;;;;;5028131;28;20041;-74
2021/06/02 12:38:12;;;;;;;5.25;4.70;;;21.90;99.90;;;;;;5027547;28;20026;-72
2021/06/02 12:40:47;;;;;;;5.40;4.90;;;21.90;99.90;;;;;;5030147;28;20033;-74
2021/06/02 12:43:22;;;;;;;9.55;4.25;;;22.00;99.90;;;;;;5013308;28;20021;-72
2021/06/02 12:45:54;;;;;;;5.40;4.90;;;22.00;99.90;;;;;;5012626;28;20441;-73
2021/06/02 12:48:34;;;;;;;6.75;5.22;;;21.80;99.90;;;;;;5026592;28;20555;-74
2021/06/02 12:51:03;;;;;;;4.75;4.20;;;21.90;99.90;;;;;;5029059;28;20124;-73
2021/06/02 12:53:39;;;;;;;5.03;4.63;;;22.00;99.90;;;;;;5029923;28;20029;-74
2021/06/02 12:56:07;;;;;;;4.63;4.32;;;21.90;99.90;;;;;;5011441;28;20033;-73
2021/06/02 12:58:35;;;;;;;4.28;3.97;;;22.00;99.90;;;;;;5028154;28;20497;-74
2021/06/02 13:01:28;;;;;;;4.40;3.92;;;22.00;99.90;;;;;;5028571;28;20025;-76
2021/06/02 13:03:58;;;;;;;4.38;3.38;;;22.10;99.90;;;;;;5026994;28;20026;-73
2021/06/02 13:06:27;;;;;;;3.35;3.05;;;22.00;99.90;;;;;;5013113;28;20392;-74
2021/06/02 13:08:54;;;;;;;5.53;3.67;;;21.90;99.90;;;;;;5012461;28;20052;-73
2021/06/02 13:11:28;;;;;;;4.90;4.43;;;21.80;99.90;;;;;;5033025;28;20025;-73
2021/06/02 13:13:55;;;;;;;3.92;3.70;;;21.80;99.90;;;;;;5031631;28;20026;-74
2021/06/02 13:16:21;;;;;;;6.85;4.72;;;22.00;99.90;;;;;;5030990;28;20034;-74
2021/06/02 13:19:13;;;;;;;5.20;3.40;;;22.10;99.90;;;;;;5028277;28;20036;-73
2021/06/02 13:21:50;;;;;;;5.60;4.00;;;22.20;99.90;;;;;;5026624;28;20137;-74
2021/06/02 13:24:19;;;;;;;4.97;3.88;;;22.40;99.90;;;;;;5030018;28;20029;-74
2021/06/02 13:27:00;;;;;;;5.30;3.85;;;22.50;99.90;;;;;;5031215;28;20081;-75
2021/06/02 13:29:26;;;;;;;6.00;3.85;;;22.70;99.90;;;;;;5003397;28;20040;-74
2021/06/02 13:31:53;;;;;;;6.07;3.97;;;22.60;99.90;;;;;;5029584;28;20038;-74